sensor_id;sensor_type;location;lat;lon;timestamp;P1;durP1;ratioP1;P2;durP2;ratioP2
6017;SDS011;3037;51.068;13.780;2023-07-13T00:02:18;4.53;;;2.57;;
6017;SDS011;3037;51.068;13.780;2023-07-13T00:04:44;1.97;;;1.80;;
6017;SDS011;3037;51.068;13.780;2023-07-13T00:07:09;2.73;;;2.53;;
6017;SDS011;3037;51.068;13.780;2023-07-13T00:09:34;2.30;;;2.20;;
6017;SDS011;3037;51.068;13.780;2023-07-13T00:12:00;3.00;;;2.50;;
6017;SDS011;3037;51.068;13.780;2023-07-13T00:14:27;2.93;;;2.57;;
6017;SDS011;3037;51.068;13.780;2023-07-13T00:16:53;2.33;;;2.20;;
6017;SDS011;3037;51.068;13.780;2023-07-13T00:19:20;2.40;;;2.27;;
6017;SDS011;3037;51.068;13.780;2023-07-13T00:21:46;3.20;;;2.33;;
6017;SDS011;3037;51.068;13.780;2023-07-13T00:24:13;5.67;;;2.23;;
6017;SDS011;3037;51.068;13.780;2023-07-13T00:26:40;2.30;;;2.20;;
6017;SDS011;3037;51.068;13.780;2023-07-13T00:29:10;12.73;;;2.67;;
6017;SDS011;3037;51.068;13.780;2023-07-13T00:31:36;5.13;;;2.43;;
6017;SDS011;3037;51.068;13.780;2023-07-13T00:34:02;2.50;;;2.40;;
6017;SDS011;3037;51.068;13.780;2023-07-13T00:36:29;2.30;;;2.20;;
6017;SDS011;3037;51.068;13.780;2023-07-13T00:38:55;3.13;;;2.60;;
6017;SDS011;3037;51.068;13.780;2023-07-13T00:41:20;3.37;;;2.50;;
6017;SDS011;3037;51.068;13.780;2023-07-13T00:43:46;2.40;;;2.30;;
6017;SDS011;3037;51.068;13.780;2023-07-13T00:48:37;10.63;;;2.73;;
6017;SDS011;3037;51.068;13.780;2023-07-13T00:51:03;4.10;;;2.27;;
6017;SDS011;3037;51.068;13.780;2023-07-13T00:53:29;2.83;;;2.33;;
6017;SDS011;3037;51.068;13.780;2023-07-13T00:55:56;2.97;;;2.67;;
6017;SDS011;3037;51.068;13.780;2023-07-13T00:58:23;2.70;;;2.60;;
6017;SDS011;3037;51.068;13.780;2023-07-13T01:00:51;3.97;;;3.13;;
6017;SDS011;3037;51.068;13.780;2023-07-13T01:03:17;3.60;;;3.33;;
6017;SDS011;3037;51.068;13.780;2023-07-13T01:05:43;3.13;;;2.90;;
6017;SDS011;3037;51.068;13.780;2023-07-13T01:08:11;2.93;;;2.47;;
6017;SDS011;3037;51.068;13.780;2023-07-13T01:10:37;18.00;;;3.53;;
6017;SDS011;3037;51.068;13.780;2023-07-13T01:13:07;6.50;;;3.20;;
6017;SDS011;3037;51.068;13.780;2023-07-13T01:18:21;7.93;;;3.60;;
6017;SDS011;3037;51.068;13.780;2023-07-13T01:23:28;3.80;;;3.60;;
6017;SDS011;3037;51.068;13.780;2023-07-13T01:25:55;3.40;;;2.67;;
6017;SDS011;3037;51.068;13.780;2023-07-13T01:28:21;3.33;;;2.70;;
6017;SDS011;3037;51.068;13.780;2023-07-13T01:30:48;3.00;;;2.77;;
6017;SDS011;3037;51.068;13.780;2023-07-13T01:33:14;5.07;;;4.00;;
6017;SDS011;3037;51.068;13.780;2023-07-13T01:35:43;2.97;;;2.80;;
6017;SDS011;3037;51.068;13.780;2023-07-13T01:38:13;3.20;;;3.00;;
6017;SDS011;3037;51.068;13.780;2023-07-13T01:40:41;3.23;;;2.83;;
6017;SDS011;3037;51.068;13.780;2023-07-13T01:43:06;5.10;;;3.17;;
6017;SDS011;3037;51.068;13.780;2023-07-13T01:45:32;3.23;;;3.03;;
6017;SDS011;3037;51.068;13.780;2023-07-13T01:47:58;3.60;;;2.97;;
6017;SDS011;3037;51.068;13.780;2023-07-13T01:50:24;4.13;;;3.37;;
6017;SDS011;3037;51.068;13.780;2023-07-13T01:52:50;3.37;;;3.07;;
6017;SDS011;3037;51.068;13.780;2023-07-13T01:55:15;3.03;;;2.87;;
6017;SDS011;3037;51.068;13.780;2023-07-13T01:57:41;3.37;;;3.00;;
6017;SDS011;3037;51.068;13.780;2023-07-13T02:00:08;3.23;;;2.97;;
6017;SDS011;3037;51.068;13.780;2023-07-13T02:02:35;5.33;;;3.57;;
6017;SDS011;3037;51.068;13.780;2023-07-13T02:05:00;3.40;;;3.03;;
6017;SDS011;3037;51.068;13.780;2023-07-13T02:07:26;3.47;;;3.10;;
6017;SDS011;3037;51.068;13.780;2023-07-13T02:09:51;4.50;;;3.90;;
6017;SDS011;3037;51.068;13.780;2023-07-13T02:12:17;7.20;;;4.23;;
6017;SDS011;3037;51.068;13.780;2023-07-13T02:14:42;4.60;;;4.20;;
6017;SDS011;3037;51.068;13.780;2023-07-13T02:17:09;8.70;;;3.50;;
6017;SDS011;3037;51.068;13.780;2023-07-13T02:19:35;4.43;;;4.10;;
6017;SDS011;3037;51.068;13.780;2023-07-13T02:22:01;5.20;;;3.60;;
6017;SDS011;3037;51.068;13.780;2023-07-13T02:24:27;3.80;;;3.50;;
6017;SDS011;3037;51.068;13.780;2023-07-13T02:26:52;5.13;;;4.40;;
6017;SDS011;3037;51.068;13.780;2023-07-13T02:29:18;6.00;;;4.20;;
6017;SDS011;3037;51.068;13.780;2023-07-13T02:31:43;15.30;;;4.43;;
6017;SDS011;3037;51.068;13.780;2023-07-13T02:34:09;4.20;;;3.80;;
6017;SDS011;3037;51.068;13.780;2023-07-13T02:36:35;6.40;;;5.13;;
6017;SDS011;3037;51.068;13.780;2023-07-13T02:39:01;4.27;;;3.90;;
6017;SDS011;3037;51.068;13.780;2023-07-13T02:41:28;9.07;;;4.53;;
6017;SDS011;3037;51.068;13.780;2023-07-13T02:43:54;4.17;;;3.60;;
6017;SDS011;3037;51.068;13.780;2023-07-13T02:46:27;4.10;;;3.80;;
6017;SDS011;3037;51.068;13.780;2023-07-13T02:48:53;8.47;;;3.90;;
6017;SDS011;3037;51.068;13.780;2023-07-13T02:51:19;4.50;;;4.10;;
6017;SDS011;3037;51.068;13.780;2023-07-13T02:53:44;5.50;;;4.03;;
6017;SDS011;3037;51.068;13.780;2023-07-13T02:56:10;8.00;;;4.47;;
6017;SDS011;3037;51.068;13.780;2023-07-13T02:58:35;7.77;;;4.60;;
6017;SDS011;3037;51.068;13.780;2023-07-13T03:01:06;5.53;;;4.93;;
6017;SDS011;3037;51.068;13.780;2023-07-13T03:03:33;6.90;;;3.80;;
6017;SDS011;3037;51.068;13.780;2023-07-13T03:06:00;7.37;;;4.27;;
6017;SDS011;3037;51.068;13.780;2023-07-13T03:08:27;4.50;;;4.20;;
6017;SDS011;3037;51.068;13.780;2023-07-13T03:11:03;5.70;;;5.10;;
6017;SDS011;3037;51.068;13.780;2023-07-13T03:13:31;7.53;;;4.63;;
6017;SDS011;3037;51.068;13.780;2023-07-13T03:15:56;7.17;;;4.10;;
6017;SDS011;3037;51.068;13.780;2023-07-13T03:18:22;5.80;;;4.27;;
6017;SDS011;3037;51.068;13.780;2023-07-13T03:20:50;8.27;;;4.33;;
6017;SDS011;3037;51.068;13.780;2023-07-13T03:23:16;4.83;;;4.53;;
6017;SDS011;3037;51.068;13.780;2023-07-13T03:25:42;4.87;;;4.10;;
6017;SDS011;3037;51.068;13.780;2023-07-13T03:28:09;19.03;;;4.10;;
6017;SDS011;3037;51.068;13.780;2023-07-13T03:30:35;4.53;;;4.20;;
6017;SDS011;3037;51.068;13.780;2023-07-13T03:33:01;6.83;;;3.50;;
6017;SDS011;3037;51.068;13.780;2023-07-13T03:35:26;7.37;;;3.53;;
6017;SDS011;3037;51.068;13.780;2023-07-13T03:37:52;11.93;;;3.70;;
6017;SDS011;3037;51.068;13.780;2023-07-13T03:40:17;7.77;;;4.47;;
6017;SDS011;3037;51.068;13.780;2023-07-13T03:42:43;4.47;;;3.97;;
6017;SDS011;3037;51.068;13.780;2023-07-13T03:45:09;6.60;;;4.37;;
6017;SDS011;3037;51.068;13.780;2023-07-13T03:47:34;8.80;;;3.63;;
6017;SDS011;3037;51.068;13.780;2023-07-13T03:50:00;3.90;;;3.47;;
6017;SDS011;3037;51.068;13.780;2023-07-13T03:52:25;5.50;;;3.40;;
6017;SDS011;3037;51.068;13.780;2023-07-13T03:54:51;4.33;;;3.43;;
6017;SDS011;3037;51.068;13.780;2023-07-13T03:57:16;6.87;;;4.40;;
6017;SDS011;3037;51.068;13.780;2023-07-13T03:59:43;3.60;;;3.30;;
6017;SDS011;3037;51.068;13.780;2023-07-13T04:02:09;3.83;;;3.63;;
6017;SDS011;3037;51.068;13.780;2023-07-13T04:04:35;8.20;;;3.20;;
6017;SDS011;3037;51.068;13.780;2023-07-13T04:07:00;3.20;;;3.00;;
6017;SDS011;3037;51.068;13.780;2023-07-13T04:09:26;5.90;;;3.00;;
6017;SDS011;3037;51.068;13.780;2023-07-13T04:11:51;3.63;;;3.33;;
6017;SDS011;3037;51.068;13.780;2023-07-13T04:14:17;5.20;;;4.43;;
6017;SDS011;3037;51.068;13.780;2023-07-13T04:16:43;4.90;;;3.70;;
6017;SDS011;3037;51.068;13.780;2023-07-13T04:19:08;4.70;;;4.00;;
6017;SDS011;3037;51.068;13.780;2023-07-13T04:21:35;4.30;;;3.80;;
6017;SDS011;3037;51.068;13.780;2023-07-13T04:24:01;3.30;;;3.07;;
6017;SDS011;3037;51.068;13.780;2023-07-13T04:26:27;5.07;;;3.10;;
6017;SDS011;3037;51.068;13.780;2023-07-13T04:28:53;22.13;;;4.10;;
6017;SDS011;3037;51.068;13.780;2023-07-13T04:31:19;4.83;;;4.03;;
6017;SDS011;3037;51.068;13.780;2023-07-13T04:33:45;4.00;;;3.60;;
6017;SDS011;3037;51.068;13.780;2023-07-13T04:36:10;5.10;;;4.20;;
6017;SDS011;3037;51.068;13.780;2023-07-13T04:38:36;3.33;;;3.13;;
6017;SDS011;3037;51.068;13.780;2023-07-13T04:41:03;5.33;;;4.13;;
6017;SDS011;3037;51.068;13.780;2023-07-13T04:43:31;4.17;;;3.60;;
6017;SDS011;3037;51.068;13.780;2023-07-13T04:45:57;3.73;;;3.43;;
6017;SDS011;3037;51.068;13.780;2023-07-13T04:48:32;4.20;;;3.90;;
6017;SDS011;3037;51.068;13.780;2023-07-13T04:50:58;7.57;;;4.00;;
6017;SDS011;3037;51.068;13.780;2023-07-13T04:53:25;4.30;;;3.73;;
6017;SDS011;3037;51.068;13.780;2023-07-13T04:55:51;4.27;;;3.97;;
6017;SDS011;3037;51.068;13.780;2023-07-13T04:58:17;5.73;;;3.77;;
6017;SDS011;3037;51.068;13.780;2023-07-13T05:00:42;4.17;;;3.80;;
6017;SDS011;3037;51.068;13.780;2023-07-13T05:03:08;5.20;;;3.77;;
6017;SDS011;3037;51.068;13.780;2023-07-13T05:05:33;3.70;;;3.40;;
6017;SDS011;3037;51.068;13.780;2023-07-13T05:07:59;5.90;;;3.40;;
6017;SDS011;3037;51.068;13.780;2023-07-13T05:10:25;3.83;;;3.50;;
6017;SDS011;3037;51.068;13.780;2023-07-13T05:12:50;3.63;;;3.17;;
6017;SDS011;3037;51.068;13.780;2023-07-13T05:15:16;4.30;;;3.80;;
6017;SDS011;3037;51.068;13.780;2023-07-13T05:17:45;6.97;;;3.70;;
6017;SDS011;3037;51.068;13.780;2023-07-13T05:20:12;6.67;;;5.00;;
6017;SDS011;3037;51.068;13.780;2023-07-13T05:22:37;4.27;;;3.37;;
6017;SDS011;3037;51.068;13.780;2023-07-13T05:25:06;5.60;;;4.30;;
6017;SDS011;3037;51.068;13.780;2023-07-13T05:27:33;3.40;;;3.20;;
6017;SDS011;3037;51.068;13.780;2023-07-13T05:29:59;12.83;;;4.07;;
6017;SDS011;3037;51.068;13.780;2023-07-13T05:32:25;5.07;;;3.30;;
6017;SDS011;3037;51.068;13.780;2023-07-13T05:34:51;5.30;;;3.60;;
6017;SDS011;3037;51.068;13.780;2023-07-13T05:37:17;5.10;;;3.10;;
6017;SDS011;3037;51.068;13.780;2023-07-13T05:39:42;7.17;;;3.30;;
6017;SDS011;3037;51.068;13.780;2023-07-13T05:42:08;5.43;;;3.83;;
6017;SDS011;3037;51.068;13.780;2023-07-13T05:44:33;7.87;;;4.00;;
6017;SDS011;3037;51.068;13.780;2023-07-13T05:46:59;5.93;;;3.60;;
6017;SDS011;3037;51.068;13.780;2023-07-13T05:49:24;5.23;;;3.87;;
6017;SDS011;3037;51.068;13.780;2023-07-13T05:51:50;5.17;;;3.90;;
6017;SDS011;3037;51.068;13.780;2023-07-13T05:54:15;5.20;;;3.20;;
6017;SDS011;3037;51.068;13.780;2023-07-13T05:56:41;4.00;;;3.60;;
6017;SDS011;3037;51.068;13.780;2023-07-13T05:59:07;4.33;;;3.70;;
6017;SDS011;3037;51.068;13.780;2023-07-13T06:01:32;3.90;;;3.60;;
6017;SDS011;3037;51.068;13.780;2023-07-13T06:03:58;8.83;;;3.20;;
6017;SDS011;3037;51.068;13.780;2023-07-13T06:06:23;5.30;;;3.13;;
6017;SDS011;3037;51.068;13.780;2023-07-13T06:08:49;3.60;;;3.33;;
6017;SDS011;3037;51.068;13.780;2023-07-13T06:11:18;8.17;;;3.23;;
6017;SDS011;3037;51.068;13.780;2023-07-13T06:13:47;3.63;;;2.60;;
6017;SDS011;3037;51.068;13.780;2023-07-13T06:16:12;2.93;;;2.73;;
6017;SDS011;3037;51.068;13.780;2023-07-13T06:18:39;4.73;;;2.97;;
6017;SDS011;3037;51.068;13.780;2023-07-13T06:21:15;5.87;;;2.43;;
6017;SDS011;3037;51.068;13.780;2023-07-13T06:23:43;7.20;;;2.37;;
6017;SDS011;3037;51.068;13.780;2023-07-13T06:26:09;3.23;;;2.43;;
6017;SDS011;3037;51.068;13.780;2023-07-13T06:28:35;2.87;;;2.63;;
6017;SDS011;3037;51.068;13.780;2023-07-13T06:31:04;2.80;;;2.70;;
6017;SDS011;3037;51.068;13.780;2023-07-13T06:33:34;3.67;;;2.60;;
6017;SDS011;3037;51.068;13.780;2023-07-13T06:36:00;6.20;;;2.43;;
6017;SDS011;3037;51.068;13.780;2023-07-13T06:38:27;7.00;;;3.17;;
6017;SDS011;3037;51.068;13.780;2023-07-13T06:40:52;5.33;;;3.00;;
6017;SDS011;3037;51.068;13.780;2023-07-13T06:43:18;5.23;;;2.77;;
6017;SDS011;3037;51.068;13.780;2023-07-13T06:45:45;6.37;;;2.27;;
6017;SDS011;3037;51.068;13.780;2023-07-13T06:48:12;7.10;;;3.20;;
6017;SDS011;3037;51.068;13.780;2023-07-13T06:50:38;3.00;;;2.57;;
6017;SDS011;3037;51.068;13.780;2023-07-13T06:53:03;4.63;;;2.63;;
6017;SDS011;3037;51.068;13.780;2023-07-13T06:55:29;3.50;;;2.50;;
6017;SDS011;3037;51.068;13.780;2023-07-13T06:57:54;8.10;;;4.43;;
6017;SDS011;3037;51.068;13.780;2023-07-13T07:00:20;6.23;;;2.67;;
6017;SDS011;3037;51.068;13.780;2023-07-13T07:02:45;5.77;;;3.03;;
6017;SDS011;3037;51.068;13.780;2023-07-13T07:05:11;2.27;;;2.17;;
6017;SDS011;3037;51.068;13.780;2023-07-13T07:07:36;4.57;;;2.70;;
6017;SDS011;3037;51.068;13.780;2023-07-13T07:10:02;4.33;;;3.10;;
6017;SDS011;3037;51.068;13.780;2023-07-13T07:12:28;7.00;;;3.07;;
6017;SDS011;3037;51.068;13.780;2023-07-13T07:14:54;9.53;;;4.57;;
6017;SDS011;3037;51.068;13.780;2023-07-13T07:17:19;4.93;;;2.53;;
6017;SDS011;3037;51.068;13.780;2023-07-13T07:19:45;7.63;;;2.80;;
6017;SDS011;3037;51.068;13.780;2023-07-13T07:22:10;2.83;;;2.27;;
6017;SDS011;3037;51.068;13.780;2023-07-13T07:24:36;3.57;;;2.70;;
6017;SDS011;3037;51.068;13.780;2023-07-13T07:27:01;9.00;;;2.50;;
6017;SDS011;3037;51.068;13.780;2023-07-13T07:29:27;3.03;;;2.27;;
6017;SDS011;3037;51.068;13.780;2023-07-13T07:31:53;4.07;;;1.80;;
6017;SDS011;3037;51.068;13.780;2023-07-13T07:34:18;3.20;;;2.00;;
6017;SDS011;3037;51.068;13.780;2023-07-13T07:36:44;7.90;;;3.00;;
6017;SDS011;3037;51.068;13.780;2023-07-13T07:39:10;4.83;;;2.30;;
6017;SDS011;3037;51.068;13.780;2023-07-13T07:41:36;2.80;;;2.10;;
6017;SDS011;3037;51.068;13.780;2023-07-13T07:44:02;2.33;;;2.17;;
6017;SDS011;3037;51.068;13.780;2023-07-13T07:46:28;6.50;;;2.80;;
6017;SDS011;3037;51.068;13.780;2023-07-13T07:48:54;11.43;;;2.70;;
6017;SDS011;3037;51.068;13.780;2023-07-13T07:51:21;6.40;;;2.57;;
6017;SDS011;3037;51.068;13.780;2023-07-13T07:53:47;2.60;;;2.40;;
6017;SDS011;3037;51.068;13.780;2023-07-13T07:56:12;4.00;;;2.67;;
6017;SDS011;3037;51.068;13.780;2023-07-13T07:58:38;5.30;;;2.37;;
6017;SDS011;3037;51.068;13.780;2023-07-13T08:01:04;5.40;;;2.60;;
6017;SDS011;3037;51.068;13.780;2023-07-13T08:03:30;4.27;;;2.07;;
6017;SDS011;3037;51.068;13.780;2023-07-13T08:05:56;2.10;;;1.87;;
6017;SDS011;3037;51.068;13.780;2023-07-13T08:08:22;5.60;;;2.27;;
6017;SDS011;3037;51.068;13.780;2023-07-13T08:10:48;1.80;;;1.70;;
6017;SDS011;3037;51.068;13.780;2023-07-13T08:13:13;4.00;;;2.27;;
6017;SDS011;3037;51.068;13.780;2023-07-13T08:15:38;2.40;;;2.00;;
6017;SDS011;3037;51.068;13.780;2023-07-13T08:18:05;4.93;;;1.93;;
6017;SDS011;3037;51.068;13.780;2023-07-13T08:20:32;4.87;;;1.73;;
6017;SDS011;3037;51.068;13.780;2023-07-13T08:22:58;11.20;;;2.10;;
6017;SDS011;3037;51.068;13.780;2023-07-13T08:25:24;6.53;;;2.43;;
6017;SDS011;3037;51.068;13.780;2023-07-13T08:27:49;4.30;;;2.23;;
6017;SDS011;3037;51.068;13.780;2023-07-13T08:30:15;2.53;;;1.70;;
6017;SDS011;3037;51.068;13.780;2023-07-13T08:32:40;3.47;;;1.97;;
6017;SDS011;3037;51.068;13.780;2023-07-13T08:35:06;3.07;;;2.13;;
6017;SDS011;3037;51.068;13.780;2023-07-13T08:37:32;6.20;;;1.70;;
6017;SDS011;3037;51.068;13.780;2023-07-13T08:39:57;8.37;;;2.80;;
6017;SDS011;3037;51.068;13.780;2023-07-13T08:42:31;5.17;;;2.43;;
6017;SDS011;3037;51.068;13.780;2023-07-13T08:45:04;5.23;;;1.90;;
6017;SDS011;3037;51.068;13.780;2023-07-13T08:47:38;4.20;;;2.07;;
6017;SDS011;3037;51.068;13.780;2023-07-13T08:50:11;3.80;;;2.30;;
6017;SDS011;3037;51.068;13.780;2023-07-13T08:52:40;4.30;;;2.30;;
6017;SDS011;3037;51.068;13.780;2023-07-13T08:55:11;4.20;;;2.03;;
6017;SDS011;3037;51.068;13.780;2023-07-13T08:57:46;2.40;;;1.70;;
6017;SDS011;3037;51.068;13.780;2023-07-13T09:00:17;5.30;;;2.00;;
6017;SDS011;3037;51.068;13.780;2023-07-13T09:02:58;4.40;;;2.07;;
6017;SDS011;3037;51.068;13.780;2023-07-13T09:05:38;2.83;;;2.63;;
6017;SDS011;3037;51.068;13.780;2023-07-13T09:10:58;3.70;;;2.30;;
6017;SDS011;3037;51.068;13.780;2023-07-13T09:13:37;2.23;;;1.97;;
6017;SDS011;3037;51.068;13.780;2023-07-13T09:16:14;1.77;;;1.67;;
6017;SDS011;3037;51.068;13.780;2023-07-13T09:18:47;5.87;;;2.20;;
6017;SDS011;3037;51.068;13.780;2023-07-13T09:21:15;5.07;;;1.80;;
6017;SDS011;3037;51.068;13.780;2023-07-13T09:23:45;2.67;;;2.00;;
6017;SDS011;3037;51.068;13.780;2023-07-13T09:26:14;9.43;;;2.17;;
6017;SDS011;3037;51.068;13.780;2023-07-13T09:28:45;5.63;;;2.17;;
6017;SDS011;3037;51.068;13.780;2023-07-13T09:31:14;2.40;;;2.20;;
6017;SDS011;3037;51.068;13.780;2023-07-13T09:33:54;1.77;;;1.67;;
6017;SDS011;3037;51.068;13.780;2023-07-13T09:38:49;11.33;;;1.87;;
6017;SDS011;3037;51.068;13.780;2023-07-13T09:41:37;2.57;;;1.27;;
6017;SDS011;3037;51.068;13.780;2023-07-13T09:44:27;3.10;;;1.80;;
6017;SDS011;3037;51.068;13.780;2023-07-13T09:47:18;8.13;;;1.73;;
6017;SDS011;3037;51.068;13.780;2023-07-13T09:49:48;3.53;;;1.67;;
6017;SDS011;3037;51.068;13.780;2023-07-13T09:52:20;2.47;;;1.93;;
6017;SDS011;3037;51.068;13.780;2023-07-13T09:54:48;2.67;;;1.90;;
6017;SDS011;3037;51.068;13.780;2023-07-13T09:57:16;8.37;;;2.23;;
6017;SDS011;3037;51.068;13.780;2023-07-13T09:59:48;2.10;;;1.90;;
6017;SDS011;3037;51.068;13.780;2023-07-13T10:02:26;4.20;;;2.10;;
6017;SDS011;3037;51.068;13.780;2023-07-13T10:04:56;2.90;;;2.70;;
6017;SDS011;3037;51.068;13.780;2023-07-13T10:07:23;3.37;;;2.83;;
6017;SDS011;3037;51.068;13.780;2023-07-13T10:09:53;3.13;;;1.90;;
6017;SDS011;3037;51.068;13.780;2023-07-13T10:12:19;2.70;;;2.00;;
6017;SDS011;3037;51.068;13.780;2023-07-13T10:14:45;1.93;;;1.80;;
6017;SDS011;3037;51.068;13.780;2023-07-13T10:17:13;3.20;;;2.87;;
6017;SDS011;3037;51.068;13.780;2023-07-13T10:19:50;4.00;;;2.20;;
6017;SDS011;3037;51.068;13.780;2023-07-13T10:22:24;2.10;;;1.90;;
6017;SDS011;3037;51.068;13.780;2023-07-13T10:25:53;1.83;;;1.30;;
6017;SDS011;3037;51.068;13.780;2023-07-13T10:30:53;5.83;;;1.47;;
6017;SDS011;3037;51.068;13.780;2023-07-13T10:33:21;3.13;;;1.93;;
6017;SDS011;3037;51.068;13.780;2023-07-13T10:35:47;2.77;;;1.77;;
6017;SDS011;3037;51.068;13.780;2023-07-13T10:38:18;2.50;;;1.70;;
6017;SDS011;3037;51.068;13.780;2023-07-13T10:40:54;4.00;;;2.70;;
6017;SDS011;3037;51.068;13.780;2023-07-13T10:43:25;4.87;;;2.33;;
6017;SDS011;3037;51.068;13.780;2023-07-13T10:45:53;1.70;;;1.60;;
6017;SDS011;3037;51.068;13.780;2023-07-13T10:48:20;3.50;;;1.97;;
6017;SDS011;3037;51.068;13.780;2023-07-13T10:50:49;2.50;;;2.30;;
6017;SDS011;3037;51.068;13.780;2023-07-13T10:55:55;2.17;;;1.97;;
6017;SDS011;3037;51.068;13.780;2023-07-13T10:58:31;2.60;;;2.00;;
6017;SDS011;3037;51.068;13.780;2023-07-13T11:03:54;7.87;;;2.10;;
6017;SDS011;3037;51.068;13.780;2023-07-13T11:18:52;2.80;;;1.57;;
6017;SDS011;3037;51.068;13.780;2023-07-13T11:21:28;2.70;;;1.30;;
6017;SDS011;3037;51.068;13.780;2023-07-13T11:26:53;6.37;;;2.27;;
6017;SDS011;3037;51.068;13.780;2023-07-13T11:31:52;6.20;;;1.87;;
6017;SDS011;3037;51.068;13.780;2023-07-13T11:34:36;3.57;;;1.63;;
6017;SDS011;3037;51.068;13.780;2023-07-13T11:37:03;1.67;;;1.57;;
6017;SDS011;3037;51.068;13.780;2023-07-13T11:39:37;5.17;;;2.70;;
6017;SDS011;3037;51.068;13.780;2023-07-13T11:42:08;3.63;;;1.70;;
6017;SDS011;3037;51.068;13.780;2023-07-13T11:44:41;1.87;;;1.63;;
6017;SDS011;3037;51.068;13.780;2023-07-13T11:47:19;2.20;;;2.00;;
6017;SDS011;3037;51.068;13.780;2023-07-13T11:49:51;3.37;;;2.00;;
6017;SDS011;3037;51.068;13.780;2023-07-13T11:52:22;2.30;;;1.87;;
6017;SDS011;3037;51.068;13.780;2023-07-13T11:54:54;5.60;;;2.10;;
6017;SDS011;3037;51.068;13.780;2023-07-13T11:59:59;9.60;;;2.40;;
6017;SDS011;3037;51.068;13.780;2023-07-13T12:02:36;1.93;;;1.83;;
6017;SDS011;3037;51.068;13.780;2023-07-13T12:05:14;2.50;;;1.50;;
6017;SDS011;3037;51.068;13.780;2023-07-13T12:07:42;2.57;;;1.80;;
6017;SDS011;3037;51.068;13.780;2023-07-13T12:12:37;2.83;;;1.70;;
6017;SDS011;3037;51.068;13.780;2023-07-13T12:15:13;7.13;;;2.00;;
6017;SDS011;3037;51.068;13.780;2023-07-13T12:17:39;5.10;;;2.30;;
6017;SDS011;3037;51.068;13.780;2023-07-13T12:20:28;4.00;;;2.00;;
6017;SDS011;3037;51.068;13.780;2023-07-13T12:23:00;1.80;;;1.70;;
6017;SDS011;3037;51.068;13.780;2023-07-13T12:25:27;3.13;;;2.10;;
6017;SDS011;3037;51.068;13.780;2023-07-13T12:27:54;3.37;;;1.80;;
6017;SDS011;3037;51.068;13.780;2023-07-13T12:30:23;4.60;;;1.80;;
6017;SDS011;3037;51.068;13.780;2023-07-13T12:33:05;4.87;;;2.10;;
6017;SDS011;3037;51.068;13.780;2023-07-13T12:35:39;2.03;;;1.63;;
6017;SDS011;3037;51.068;13.780;2023-07-13T12:38:14;2.67;;;2.47;;
6017;SDS011;3037;51.068;13.780;2023-07-13T12:40:41;3.70;;;1.67;;
6017;SDS011;3037;51.068;13.780;2023-07-13T12:43:13;5.33;;;2.00;;
6017;SDS011;3037;51.068;13.780;2023-07-13T12:45:54;4.90;;;1.90;;
6017;SDS011;3037;51.068;13.780;2023-07-13T12:48:21;3.13;;;1.30;;
6017;SDS011;3037;51.068;13.780;2023-07-13T12:50:47;2.57;;;2.03;;
6017;SDS011;3037;51.068;13.780;2023-07-13T12:53:16;3.30;;;2.00;;
6017;SDS011;3037;51.068;13.780;2023-07-13T12:55:46;1.83;;;1.43;;
6017;SDS011;3037;51.068;13.780;2023-07-13T12:58:36;5.93;;;2.63;;
6017;SDS011;3037;51.068;13.780;2023-07-13T13:01:04;16.53;;;1.80;;
6017;SDS011;3037;51.068;13.780;2023-07-13T13:05:58;3.10;;;1.80;;
6017;SDS011;3037;51.068;13.780;2023-07-13T13:08:40;4.83;;;2.03;;
6017;SDS011;3037;51.068;13.780;2023-07-13T13:11:07;2.40;;;1.53;;
6017;SDS011;3037;51.068;13.780;2023-07-13T13:13:34;3.10;;;1.83;;
6017;SDS011;3037;51.068;13.780;2023-07-13T13:16:12;3.43;;;1.70;;
6017;SDS011;3037;51.068;13.780;2023-07-13T13:18:44;7.03;;;1.97;;
6017;SDS011;3037;51.068;13.780;2023-07-13T13:21:10;5.17;;;2.17;;
6017;SDS011;3037;51.068;13.780;2023-07-13T13:23:36;2.67;;;1.40;;
6017;SDS011;3037;51.068;13.780;2023-07-13T13:26:02;1.53;;;1.40;;
6017;SDS011;3037;51.068;13.780;2023-07-13T13:28:28;4.10;;;2.00;;
6017;SDS011;3037;51.068;13.780;2023-07-13T13:30:54;2.73;;;1.83;;
6017;SDS011;3037;51.068;13.780;2023-07-13T13:33:20;4.60;;;1.97;;
6017;SDS011;3037;51.068;13.780;2023-07-13T13:35:46;5.43;;;1.80;;
6017;SDS011;3037;51.068;13.780;2023-07-13T13:38:16;5.37;;;1.90;;
6017;SDS011;3037;51.068;13.780;2023-07-13T13:40:44;2.90;;;1.40;;
6017;SDS011;3037;51.068;13.780;2023-07-13T13:45:42;4.70;;;2.07;;
6017;SDS011;3037;51.068;13.780;2023-07-13T13:48:29;4.17;;;1.70;;
6017;SDS011;3037;51.068;13.780;2023-07-13T13:50:57;4.23;;;1.93;;
6017;SDS011;3037;51.068;13.780;2023-07-13T13:53:24;1.63;;;1.53;;
6017;SDS011;3037;51.068;13.780;2023-07-13T13:55:50;6.27;;;1.70;;
6017;SDS011;3037;51.068;13.780;2023-07-13T13:58:17;2.07;;;1.83;;
6017;SDS011;3037;51.068;13.780;2023-07-13T14:00:45;9.03;;;2.37;;
6017;SDS011;3037;51.068;13.780;2023-07-13T14:03:18;1.70;;;1.60;;
6017;SDS011;3037;51.068;13.780;2023-07-13T14:05:46;4.07;;;1.83;;
6017;SDS011;3037;51.068;13.780;2023-07-13T14:08:17;2.20;;;1.90;;
6017;SDS011;3037;51.068;13.780;2023-07-13T14:10:45;2.90;;;1.57;;
6017;SDS011;3037;51.068;13.780;2023-07-13T14:13:17;3.10;;;2.13;;
6017;SDS011;3037;51.068;13.780;2023-07-13T14:15:46;2.93;;;1.80;;
6017;SDS011;3037;51.068;13.780;2023-07-13T14:18:12;4.40;;;2.27;;
6017;SDS011;3037;51.068;13.780;2023-07-13T14:20:42;3.43;;;1.53;;
6017;SDS011;3037;51.068;13.780;2023-07-13T14:23:09;2.60;;;1.90;;
6017;SDS011;3037;51.068;13.780;2023-07-13T14:25:35;1.93;;;1.73;;
6017;SDS011;3037;51.068;13.780;2023-07-13T14:28:04;5.87;;;2.10;;
6017;SDS011;3037;51.068;13.780;2023-07-13T14:30:45;2.07;;;1.93;;
6017;SDS011;3037;51.068;13.780;2023-07-13T14:33:12;3.57;;;2.00;;
6017;SDS011;3037;51.068;13.780;2023-07-13T14:35:38;3.47;;;2.10;;
6017;SDS011;3037;51.068;13.780;2023-07-13T14:38:03;4.53;;;1.80;;
6017;SDS011;3037;51.068;13.780;2023-07-13T14:40:30;4.60;;;2.13;;
6017;SDS011;3037;51.068;13.780;2023-07-13T14:42:57;4.47;;;1.60;;
6017;SDS011;3037;51.068;13.780;2023-07-13T14:45:23;5.67;;;2.00;;
6017;SDS011;3037;51.068;13.780;2023-07-13T14:47:49;4.73;;;1.63;;
6017;SDS011;3037;51.068;13.780;2023-07-13T14:50:16;3.37;;;1.80;;
6017;SDS011;3037;51.068;13.780;2023-07-13T14:52:49;1.97;;;1.73;;
6017;SDS011;3037;51.068;13.780;2023-07-13T14:55:16;4.70;;;2.07;;
6017;SDS011;3037;51.068;13.780;2023-07-13T14:57:43;7.97;;;2.07;;
6017;SDS011;3037;51.068;13.780;2023-07-13T15:00:12;5.90;;;1.87;;
6017;SDS011;3037;51.068;13.780;2023-07-13T15:02:38;1.67;;;1.57;;
6017;SDS011;3037;51.068;13.780;2023-07-13T15:05:18;3.67;;;1.80;;
6017;SDS011;3037;51.068;13.780;2023-07-13T15:07:46;2.10;;;1.97;;
6017;SDS011;3037;51.068;13.780;2023-07-13T15:10:16;3.90;;;2.33;;
6017;SDS011;3037;51.068;13.780;2023-07-13T15:12:43;3.50;;;2.43;;
6017;SDS011;3037;51.068;13.780;2023-07-13T15:15:09;16.10;;;3.17;;
6017;SDS011;3037;51.068;13.780;2023-07-13T15:17:36;1.83;;;1.53;;
6017;SDS011;3037;51.068;13.780;2023-07-13T15:20:06;3.97;;;1.67;;
6017;SDS011;3037;51.068;13.780;2023-07-13T15:22:53;10.80;;;1.60;;
6017;SDS011;3037;51.068;13.780;2023-07-13T15:25:23;7.07;;;1.63;;
6017;SDS011;3037;51.068;13.780;2023-07-13T15:27:51;4.00;;;1.43;;
6017;SDS011;3037;51.068;13.780;2023-07-13T15:30:17;2.50;;;1.43;;
6017;SDS011;3037;51.068;13.780;2023-07-13T15:32:44;3.83;;;1.43;;
6017;SDS011;3037;51.068;13.780;2023-07-13T15:35:21;1.53;;;1.43;;
6017;SDS011;3037;51.068;13.780;2023-07-13T15:37:48;2.80;;;1.53;;
6017;SDS011;3037;51.068;13.780;2023-07-13T15:40:15;2.60;;;2.10;;
6017;SDS011;3037;51.068;13.780;2023-07-13T15:42:41;1.63;;;1.50;;
6017;SDS011;3037;51.068;13.780;2023-07-13T15:45:21;1.53;;;1.47;;
6017;SDS011;3037;51.068;13.780;2023-07-13T15:47:49;2.37;;;1.63;;
6017;SDS011;3037;51.068;13.780;2023-07-13T15:50:17;7.90;;;1.50;;
6017;SDS011;3037;51.068;13.780;2023-07-13T15:52:46;1.70;;;1.30;;
6017;SDS011;3037;51.068;13.780;2023-07-13T15:55:17;1.37;;;1.27;;
6017;SDS011;3037;51.068;13.780;2023-07-13T15:57:46;4.97;;;1.67;;